Time;durP1;ratioP1;P1;durP2;ratioP2;P2;SDS_P1;SDS_P2;PMS_P1;PMS_P2;Temp;Humidity;BMP_temperature;BMP_pressure;BME280_temperature;BME280_humidity;BME280_pressure;Samples;Min_cycle;Max_cycle;Signal;HPM_P1;HPM_P2
2023/09/11 00:01:25;;;;;;;44.63;32.97;;;;;;;-145.63;56.41;39288.25;5025401;28;20037;-67
2023/09/11 00:03:52;;;;;;;47.83;35.50;;;;;;;-145.63;56.36;39292.19;5043433;28;20025;-68
2023/09/11 00:06:18;;;;;;;43.83;33.92;;;;;;;-145.63;56.41;39315.66;5029885;28;20017;-67
2023/09/11 00:08:43;;;;;;;40.40;32.58;;;;;;;-145.63;55.86;39317.59;5018981;28;20022;-66
2023/09/11 00:11:09;;;;;;;39.92;33.00;;;;;;;-145.63;56.13;39323.47;5017957;28;20104;-67
2023/09/11 00:13:34;;;;;;;43.08;32.75;;;;;;;-145.63;56.56;39309.78;5024773;28;20048;-67
2023/09/11 00:16:00;;;;;;;41.53;32.58;;;;;;;-145.63;56.53;39339.13;5024632;28;20030;-67
2023/09/11 00:18:26;;;;;;;41.97;32.42;;;;;;;-145.63;56.48;39325.41;5024926;28;20033;-67
2023/09/11 00:20:51;;;;;;;41.95;32.80;;;;;;;-145.63;56.67;39288.25;5024733;28;20025;-67
2023/09/11 00:23:17;;;;;;;44.55;33.00;;;;;;;-145.63;56.23;39286.31;5024686;28;20017;-67
2023/09/11 00:25:43;;;;;;;41.47;33.47;;;;;;;-145.63;56.53;39309.78;5024408;28;20261;-67
2023/09/11 00:28:09;;;;;;;42.83;33.38;;;;;;;-145.63;56.24;39325.41;5024826;28;20029;-67
2023/09/11 00:30:36;;;;;;;43.13;32.97;;;;;;;-145.63;56.24;39309.78;5024736;28;20076;-67
2023/09/11 00:33:02;;;;;;;43.95;34.30;;;;;;;-145.63;56.20;39300.00;5024401;28;20030;-67
2023/09/11 00:35:27;;;;;;;43.05;33.30;;;;;;;-145.63;56.36;39325.41;5023477;28;20183;-67
2023/09/11 00:37:53;;;;;;;44.13;32.90;;;;;;;-145.63;56.25;39321.50;5024488;28;20349;-67
2023/09/11 00:40:18;;;;;;;43.10;34.08;;;;;;;-145.63;56.45;39323.47;5024567;28;20049;-67
2023/09/11 00:42:44;;;;;;;40.65;32.03;;;;;;;-145.63;56.17;39333.25;5024522;28;20022;-66
2023/09/11 00:45:11;;;;;;;45.38;33.53;;;;;;;-145.63;56.21;39348.88;5024269;28;20372;-67
2023/09/11 00:47:38;;;;;;;40.33;31.98;;;;;;;-145.63;56.67;39341.06;5024413;28;20394;-68
2023/09/11 00:50:05;;;;;;;45.67;34.58;;;;;;;-145.63;56.37;39333.25;5024309;28;20037;-67
2023/09/11 00:52:31;;;;;;;46.13;34.92;;;;;;;-145.63;56.33;39321.50;5024487;28;20040;-67
2023/09/11 00:54:58;;;;;;;45.72;34.10;;;;;;;-145.63;56.51;39368.44;5024135;28;20085;-66
2023/09/11 00:57:25;;;;;;;45.30;32.72;;;;;;;-145.63;56.18;39348.88;5024220;28;20230;-66
2023/09/11 00:59:51;;;;;;;42.92;33.60;;;;;;;-145.63;56.55;39290.22;5023934;28;20021;-67
2023/09/11 01:02:20;;;;;;;44.17;33.92;;;;;;;-145.63;56.42;39327.38;5024256;28;20101;-66
2023/09/11 01:04:45;;;;;;;45.92;34.53;;;;;;;-145.63;55.95;39305.88;5024104;28;20021;-67
2023/09/11 01:07:13;;;;;;;45.22;34.03;;;;;;;-145.63;56.36;39329.34;5023979;28;20091;-67
2023/09/11 01:09:39;;;;;;;41.03;33.40;;;;;;;-145.63;56.13;39327.38;5023956;28;20046;-69
2023/09/11 01:12:05;;;;;;;43.33;33.10;;;;;;;-145.63;55.84;39301.94;5023687;28;20053;-69
2023/09/11 01:14:32;;;;;;;47.53;34.13;;;;;;;-145.63;56.14;39309.78;5024265;28;20033;-68
2023/09/11 01:17:24;;;;;;;43.05;34.03;;;;;;;-145.63;56.65;39309.78;5023521;28;20040;-68
2023/09/11 01:20:21;;;;;;;44.63;33.85;;;;;;;-145.63;56.22;39352.81;5023899;28;20370;-67
2023/09/11 01:23:08;;;;;;;45.22;33.75;;;;;;;-145.63;55.99;39343.03;5022840;28;20041;-68
2023/09/11 01:25:55;;;;;;;43.78;34.00;;;;;;;-145.63;55.72;39348.88;5023368;28;20064;-67
2023/09/11 01:28:26;;;;;;;42.17;32.58;;;;;;;-145.63;56.28;39358.66;5004286;28;20037;-67
2023/09/11 01:30:54;;;;;;;42.85;32.35;;;;;;;-145.63;56.03;39313.69;5022560;28;20046;-67
2023/09/11 01:33:20;;;;;;;45.83;33.97;;;;;;;-145.63;56.26;39339.13;5023756;28;20314;-68
2023/09/11 01:35:46;;;;;;;45.22;33.30;;;;;;;-145.63;56.06;39315.66;5023447;28;20084;-67
2023/09/11 01:38:12;;;;;;;46.38;34.35;;;;;;;-145.63;56.46;39343.03;5029175;28;20026;-69
2023/09/11 01:40:40;;;;;;;44.35;33.30;;;;;;;-145.63;56.11;39346.94;5042927;28;20194;-68
2023/09/11 01:43:08;;;;;;;50.10;34.58;;;;;;;-145.63;56.20;39317.59;5036617;28;20136;-68
2023/09/11 01:45:36;;;;;;;45.15;34.63;;;;;;;-145.63;56.20;39403.66;5027030;28;20033;-67
2023/09/11 01:48:04;;;;;;;43.22;33.97;;;;;;;-145.63;56.47;39309.78;5023471;28;20022;-68
2023/09/11 01:50:31;;;;;;;43.30;33.75;;;;;;;-145.63;56.26;39341.06;5022249;28;20314;-68
2023/09/11 01:52:58;;;;;;;48.35;35.28;;;;;;;-145.63;56.12;39305.88;5023100;28;20350;-68
2023/09/11 01:55:24;;;;;;;46.30;34.00;;;;;;;-145.63;56.57;39344.97;5023774;28;20030;-68
2023/09/11 01:57:49;;;;;;;44.63;34.95;;;;;;;-145.63;57.01;39344.97;5023505;28;20288;-68
2023/09/11 02:00:15;;;;;;;44.83;35.25;;;;;;;-145.63;56.93;39343.03;5023548;28;20033;-67
2023/09/11 02:02:41;;;;;;;45.05;35.83;;;;;;;-145.63;56.77;39282.41;5023466;28;20129;-67
2023/09/11 02:05:07;;;;;;;44.63;35.10;;;;;;;-145.63;57.01;39311.72;5023554;28;20029;-67
2023/09/11 02:07:33;;;;;;;48.50;35.42;;;;;;;-145.63;57.41;39307.81;5023725;28;20026;-68
2023/09/11 02:09:58;;;;;;;44.35;35.10;;;;;;;-145.63;57.07;39290.22;5023224;28;20052;-68
2023/09/11 02:12:24;;;;;;;47.40;36.63;;;;;;;-145.63;57.09;39329.34;5023231;28;20029;-67
2023/09/11 02:14:50;;;;;;;48.88;36.45;;;;;;;-145.63;57.57;39321.50;5021999;28;20034;-66
2023/09/11 02:17:15;;;;;;;49.50;36.72;;;;;;;-145.63;57.34;39335.19;5023262;28;20037;-67
2023/09/11 02:19:42;;;;;;;43.10;35.95;;;;;;;-145.63;57.45;39309.78;5023041;28;20250;-68
2023/09/11 02:22:08;;;;;;;45.95;36.15;;;;;;;-145.63;57.48;39315.66;5023307;28;20214;-67
2023/09/11 02:24:33;;;;;;;47.63;36.80;;;;;;;-145.63;57.50;39319.56;5022867;28;20045;-67
2023/09/11 02:26:59;;;;;;;49.28;37.38;;;;;;;-145.63;57.63;39313.69;5023006;28;20026;-67
2023/09/11 02:29:25;;;;;;;49.67;38.28;;;;;;;-145.63;57.61;39292.19;5023424;28;20214;-67
2023/09/11 02:31:50;;;;;;;48.42;36.60;;;;;;;-145.63;57.65;39313.69;5022893;28;20143;-68
2023/09/11 02:34:16;;;;;;;49.42;37.20;;;;;;;-145.63;57.64;39288.25;5022871;28;20033;-67
2023/09/11 02:36:41;;;;;;;59.28;42.33;;;;;;;-145.63;57.99;39309.78;5022870;28;20034;-67
2023/09/11 02:39:07;;;;;;;49.92;37.00;;;;;;;-145.63;57.75;39393.88;5026562;28;20026;-67
2023/09/11 02:41:33;;;;;;;53.65;39.78;;;;;;;-145.63;58.03;39309.78;5026544;28;20052;-66
2023/09/11 02:43:58;;;;;;;50.42;39.75;;;;;;;-145.63;58.09;39323.47;5026380;28;20199;-67
2023/09/11 02:46:24;;;;;;;50.33;38.65;;;;;;;-145.63;57.78;39346.94;5026508;28;20032;-67
2023/09/11 02:48:49;;;;;;;47.17;37.10;;;;;;;-145.63;57.84;39307.81;5026446;28;20188;-67
2023/09/11 02:51:17;;;;;;;50.42;38.72;;;;;;;-145.63;57.70;39339.13;5025965;28;20034;-67
2023/09/11 02:53:42;;;;;;;50.90;37.88;;;;;;;-145.63;58.28;39307.81;5026006;28;20030;-68
2023/09/11 02:56:08;;;;;;;50.20;38.25;;;;;;;-145.63;57.99;39323.47;5026149;28;20033;-67
2023/09/11 02:58:34;;;;;;;48.72;35.78;;;;;;;-145.63;57.66;39348.88;5026269;28;20041;-67
2023/09/11 03:01:03;;;;;;;50.50;38.15;;;;;;;-145.63;57.36;39323.47;5026152;28;20036;-66
2023/09/11 03:03:30;;;;;;;50.90;39.35;;;;;;;-145.63;58.20;39311.72;5026022;28;20033;-66
2023/09/11 03:05:57;;;;;;;49.05;38.35;;;;;;;-145.63;57.80;39313.69;5026091;28;20052;-67
2023/09/11 03:08:23;;;;;;;52.03;38.22;;;;;;;-145.63;57.61;39303.91;5026494;28;20191;-66
2023/09/11 03:10:49;;;;;;;49.67;37.97;;;;;;;-145.63;57.66;39313.69;5026210;28;20022;-66
2023/09/11 03:13:15;;;;;;;47.92;37.95;;;;;;;-145.63;58.09;39311.72;5025901;28;20226;-66
2023/09/11 03:15:42;;;;;;;54.55;40.80;;;;;;;-145.63;57.99;39343.03;5035139;28;20026;-66
2023/09/11 03:18:08;;;;;;;49.65;37.63;;;;;;;-145.63;57.92;39448.63;5027473;28;20265;-67
2023/09/11 03:20:34;;;;;;;52.58;39.63;;;;;;;-145.63;58.06;39313.69;5030549;28;20053;-67
2023/09/11 03:23:00;;;;;;;54.03;40.17;;;;;;;-145.63;57.97;39321.50;5025747;28;20084;-66
2023/09/11 03:25:29;;;;;;;49.80;38.47;;;;;;;-145.63;58.51;39307.81;5033256;28;20206;-65
2023/09/11 03:27:55;;;;;;;51.88;38.83;;;;;;;-145.63;58.45;39348.88;5027583;28;20140;-67
2023/09/11 03:30:20;;;;;;;54.28;38.28;;;;;;;-145.63;58.40;39313.69;5025751;28;20030;-68
2023/09/11 03:32:46;;;;;;;52.25;39.08;;;;;;;-145.63;58.28;39294.13;5025907;28;20061;-68
2023/09/11 03:35:12;;;;;;;51.92;40.42;;;;;;;-145.63;58.41;39323.47;5025650;28;20527;-67
2023/09/11 03:37:37;;;;;;;53.75;40.83;;;;;;;-145.63;58.23;39333.25;5025531;28;20034;-66
2023/09/11 03:40:07;;;;;;;57.45;41.03;;;;;;;-145.63;58.59;39327.38;5025376;28;20045;-67
2023/09/11 03:42:34;;;;;;;57.38;43.13;;;;;;;-145.63;58.05;39294.13;5025603;28;20034;-68
2023/09/11 03:45:00;;;;;;;55.15;39.83;;;;;;;-145.63;58.32;39335.19;5025259;28;20026;-67
2023/09/11 03:47:26;;;;;;;55.83;41.67;;;;;;;-145.63;58.30;39313.69;5025441;28;20079;-67
2023/09/11 03:49:51;;;;;;;53.88;38.80;;;;;;;-145.63;58.55;39321.50;5024212;28;20317;-68
2023/09/11 03:52:17;;;;;;;52.30;39.10;;;;;;;-145.63;58.36;39305.88;5025438;28;20033;-67
2023/09/11 03:54:43;;;;;;;48.47;36.97;;;;;;;-145.63;58.61;39266.75;5025216;28;20330;-67
2023/09/11 03:57:08;;;;;;;50.03;39.05;;;;;;;-145.63;58.33;39262.84;5023728;28;20088;-67
2023/09/11 03:59:35;;;;;;;58.42;42.97;;;;;;;-145.63;58.46;39337.16;5025124;28;20029;-66
2023/09/11 04:02:00;;;;;;;57.95;42.30;;;;;;;-145.63;58.55;39264.78;5025622;28;20040;-65
2023/09/11 04:04:26;;;;;;;52.42;39.15;;;;;;;-145.63;59.03;39313.69;5037027;28;20309;-64
2023/09/11 04:06:52;;;;;;;57.95;42.95;;;;;;;-145.63;58.51;39296.09;5034334;28;20139;-65
2023/09/11 04:09:17;;;;;;;59.72;40.80;;;;;;;-145.63;58.45;39313.69;5031745;28;20041;-64
2023/09/11 04:11:43;;;;;;;55.20;40.85;;;;;;;-145.63;58.30;39276.53;5024669;28;20046;-66
2023/09/11 04:14:09;;;;;;;52.35;39.13;;;;;;;-145.63;58.51;39317.59;5035608;28;20026;-65
2023/09/11 04:16:34;;;;;;;55.50;40.00;;;;;;;-145.63;58.62;39256.97;5024966;28;20365;-65
2023/09/11 04:19:00;;;;;;;59.03;42.85;;;;;;;-145.63;57.68;39286.31;5024347;28;20084;-65
2023/09/11 04:21:25;;;;;;;59.38;42.70;;;;;;;-145.63;58.01;39272.63;5024375;28;20022;-65
2023/09/11 04:23:51;;;;;;;55.60;41.40;;;;;;;-145.63;57.86;39280.44;5031839;28;20045;-67
2023/09/11 04:26:17;;;;;;;56.25;41.53;;;;;;;-145.63;58.07;39301.94;5026554;28;20049;-66
2023/09/11 04:28:42;;;;;;;64.28;44.30;;;;;;;-145.63;57.82;39298.03;5024504;28;20348;-67
2023/09/11 04:31:08;;;;;;;61.83;43.58;;;;;;;-145.63;57.82;39286.31;5024077;28;20104;-66
2023/09/11 04:33:34;;;;;;;62.05;42.95;;;;;;;-145.63;57.74;39255.00;5023772;28;20041;-65
2023/09/11 04:36:00;;;;;;;61.72;41.72;;;;;;;-145.63;57.80;39282.41;5024027;28;20033;-66
2023/09/11 04:38:25;;;;;;;62.58;45.05;;;;;;;-145.63;57.61;39278.47;5024320;28;20318;-65
2023/09/11 04:40:56;;;;;;;60.60;44.03;;;;;;;-145.63;57.35;39274.56;5024046;28;20033;-65
2023/09/11 04:43:23;;;;;;;65.63;46.50;;;;;;;-145.63;57.80;39266.75;5024238;28;20070;-65
2023/09/11 04:45:49;;;;;;;67.10;47.13;;;;;;;-145.63;57.21;39270.66;5023710;28;20057;-65
2023/09/11 04:48:15;;;;;;;62.15;46.20;;;;;;;-145.63;57.10;39262.84;5024016;28;20163;-65
2023/09/11 04:50:40;;;;;;;61.90;44.55;;;;;;;-145.63;56.99;39233.50;5023973;28;20030;-65
2023/09/11 04:53:06;;;;;;;61.30;43.75;;;;;;;-145.63;57.56;39239.38;5023818;28;20093;-66
2023/09/11 04:55:32;;;;;;;57.88;42.15;;;;;;;-145.63;56.50;39255.00;5023934;28;20341;-64
2023/09/11 04:57:57;;;;;;;67.50;48.40;;;;;;;-145.63;57.13;39264.78;5023675;28;20333;-65
2023/09/11 05:00:24;;;;;;;65.05;47.72;;;;;;;-145.63;56.51;39204.16;5023588;28;20026;-65
2023/09/11 05:02:50;;;;;;;67.30;48.55;;;;;;;-145.63;57.22;39184.59;5023519;28;20060;-64
2023/09/11 05:05:16;;;;;;;57.80;43.60;;;;;;;-145.63;56.57;39223.72;5022225;28;20321;-64
2023/09/11 05:07:41;;;;;;;61.03;44.22;;;;;;;-145.63;56.24;39255.00;5023687;28;20030;-65
2023/09/11 05:10:08;;;;;;;62.63;46.10;;;;;;;-145.63;55.99;39225.69;5009195;28;20045;-66
2023/09/11 05:12:34;;;;;;;60.40;44.45;;;;;;;-145.63;55.70;39260.88;5017856;28;20018;-65
2023/09/11 05:15:00;;;;;;;65.07;45.00;;;;;;;-145.63;55.97;39217.84;5023367;28;20069;-64
2023/09/11 05:17:26;;;;;;;63.20;46.17;;;;;;;-145.63;56.13;39184.59;5022605;28;20125;-66
2023/09/11 05:19:51;;;;;;;70.35;45.33;;;;;;;-145.63;56.41;39186.56;5023459;28;20093;-65
2023/09/11 05:22:17;;;;;;;61.75;45.25;;;;;;;-145.63;56.16;39190.47;5027858;28;20025;-66
2023/09/11 05:24:43;;;;;;;55.50;40.97;;;;;;;-145.63;55.70;39182.66;5025837;28;20096;-65
2023/09/11 05:27:08;;;;;;;56.47;42.65;;;;;;;-145.63;55.51;39212.00;5023453;28;20232;-66
2023/09/11 05:29:34;;;;;;;64.03;41.83;;;;;;;-145.63;55.10;39178.75;5025828;28;20025;-66
2023/09/11 05:31:59;;;;;;;63.10;43.60;;;;;;;-145.63;55.32;39180.69;5022264;28;20026;-65
2023/09/11 05:34:25;;;;;;;75.28;45.10;;;;;;;-145.63;55.38;39170.91;5023677;28;20050;-65
2023/09/11 05:36:51;;;;;;;62.85;43.83;;;;;;;-145.63;55.58;39212.00;5029247;28;20021;-64
2023/09/11 05:39:16;;;;;;;56.15;41.40;;;;;;;-145.63;55.47;39184.59;5026378;28;20052;-66
2023/09/11 05:41:42;;;;;;;52.60;40.25;;;;;;;-145.63;55.55;39163.09;5020843;28;20021;-65
2023/09/11 05:44:08;;;;;;;61.75;42.00;;;;;;;-145.63;54.97;39165.06;5038186;28;20017;-65
2023/09/11 05:46:33;;;;;;;57.95;42.72;;;;;;;-145.63;54.97;39168.97;5023227;28;20329;-65
2023/09/11 05:48:59;;;;;;;67.68;43.55;;;;;;;-145.63;54.89;39114.22;5023140;28;20041;-65
2023/09/11 05:51:25;;;;;;;57.42;42.13;;;;;;;-145.63;54.99;39153.31;5023272;28;20203;-66
2023/09/11 05:53:50;;;;;;;59.10;42.22;;;;;;;-145.63;54.47;39147.44;5023148;28;20021;-66
2023/09/11 05:56:16;;;;;;;62.58;40.65;;;;;;;-145.63;54.65;39149.41;5023369;28;20036;-65
2023/09/11 05:58:43;;;;;;;54.45;38.78;;;;;;;-145.63;54.52;39167.00;5022116;28;20042;-66
2023/09/11 06:01:08;;;;;;;55.55;41.60;;;;;;;-145.63;54.51;39094.66;5023026;28;20026;-64
2023/09/11 06:03:34;;;;;;;55.30;40.70;;;;;;;-145.63;54.37;39122.03;5021938;28;20030;-66
2023/09/11 06:06:00;;;;;;;51.90;39.60;;;;;;;-145.63;54.29;39098.56;5022961;28;20469;-66
2023/09/11 06:08:26;;;;;;;56.45;41.67;;;;;;;-145.63;54.57;39108.34;5023216;28;20028;-65
2023/09/11 06:10:52;;;;;;;50.42;39.83;;;;;;;-145.63;54.46;39092.69;5023580;28;20137;-64
2023/09/11 06:13:18;;;;;;;51.70;41.13;;;;;;;-145.63;53.73;39098.56;5025322;28;20361;-65
2023/09/11 06:15:44;;;;;;;61.00;44.15;;;;;;;-145.63;53.54;39086.81;5026763;28;20029;-65
2023/09/11 06:18:10;;;;;;;61.03;42.70;;;;;;;-145.63;53.51;39071.19;5025579;28;20026;-64
2023/09/11 06:20:35;;;;;;;52.65;39.25;;;;;;;-145.63;53.05;39090.75;5028825;28;20030;-65
2023/09/11 06:23:01;;;;;;;57.78;41.05;;;;;;;-145.63;53.10;39082.91;5041389;28;20033;-65
2023/09/11 06:25:27;;;;;;;62.00;42.47;;;;;;;-145.63;52.67;39079.00;5039725;28;20046;-65
2023/09/11 06:27:52;;;;;;;58.15;41.35;;;;;;;-145.63;52.56;39069.22;5030083;28;20033;-65
2023/09/11 06:30:18;;;;;;;49.78;38.35;;;;;;;-145.63;52.00;39071.19;5026795;28;20026;-65
2023/09/11 06:32:44;;;;;;;57.58;38.78;;;;;;;-145.63;51.80;39063.34;5026678;28;20097;-66
2023/09/11 06:35:10;;;;;;;54.05;41.00;;;;;;;-145.63;51.89;39039.88;5026628;28;20021;-65
2023/09/11 06:37:36;;;;;;;58.20;39.03;;;;;;;-145.63;51.47;39082.91;5026985;28;20032;-65
2023/09/11 06:40:07;;;;;;;52.97;38.78;;;;;;;-145.63;51.46;39039.88;5026370;28;20084;-64
2023/09/11 06:42:33;;;;;;;49.88;39.25;;;;;;;-145.63;51.54;39053.59;5026601;28;20029;-66
2023/09/11 06:44:59;;;;;;;58.97;41.50;;;;;;;-145.63;51.05;39043.81;5026286;28;20022;-65
2023/09/11 06:47:25;;;;;;;53.95;37.25;;;;;;;-145.63;50.50;39057.50;5026348;28;20222;-65
2023/09/11 06:49:50;;;;;;;54.10;40.38;;;;;;;-145.63;51.50;39024.25;5026368;28;20071;-64
2023/09/11 06:52:17;;;;;;;49.72;39.25;;;;;;;-145.63;50.33;39008.59;5026188;28;20026;-67
2023/09/11 06:54:43;;;;;;;46.85;37.38;;;;;;;-145.63;50.85;38979.28;5033212;28;20065;-66
2023/09/11 06:57:08;;;;;;;46.33;35.58;;;;;;;-145.63;49.97;38992.97;5029566;28;20132;-65
2023/09/11 06:59:34;;;;;;;47.65;35.80;;;;;;;-145.63;50.34;38991.00;5032280;28;20030;-64
2023/09/11 07:01:59;;;;;;;45.90;35.03;;;;;;;-145.63;49.15;38975.34;5017410;28;20322;-64
2023/09/11 07:04:25;;;;;;;46.38;34.42;;;;;;;-145.63;49.53;39020.34;5021379;28;20287;-65
2023/09/11 07:06:51;;;;;;;45.22;33.70;;;;;;;-145.63;48.88;38971.44;5012841;28;20038;-64
2023/09/11 07:09:17;;;;;;;42.83;32.28;;;;;;;-145.63;48.72;39030.13;5011739;28;20049;-64
2023/09/11 07:11:42;;;;;;;42.30;30.63;;;;;;;-145.63;48.56;38940.16;5018773;28;20030;-65
2023/09/11 07:14:12;;;;;;;40.58;32.35;;;;;;;-145.63;48.42;38957.75;5021132;28;20026;-64
2023/09/11 07:16:38;;;;;;;36.72;29.58;;;;;;;-145.63;48.46;38957.75;5025483;28;20029;-65
2023/09/11 07:19:04;;;;;;;35.50;28.25;;;;;;;-145.63;48.16;38946.03;5027823;28;20049;-65
2023/09/11 07:21:30;;;;;;;39.35;28.70;;;;;;;-145.63;48.35;38951.88;5038060;28;20306;-63
2023/09/11 07:23:56;;;;;;;41.47;28.08;;;;;;;-145.63;48.50;38998.81;5037051;28;20057;-64
2023/09/11 07:26:22;;;;;;;40.50;29.88;;;;;;;-145.63;48.23;38971.44;5025471;28;20038;-65
2023/09/11 07:28:59;;;;;;;30.70;25.95;;;;;;;-145.63;48.30;38973.41;5025810;28;20026;-65
2023/09/11 07:31:25;;;;;;;36.33;28.35;;;;;;;-145.63;48.33;38973.41;5005850;28;20022;-65
2023/09/11 07:33:51;;;;;;;37.13;28.05;;;;;;;-145.63;48.32;38953.84;5020717;28;20080;-62
2023/09/11 07:36:18;;;;;;;39.25;27.73;;;;;;;-145.63;48.27;38965.56;5024869;28;20022;-64
2023/09/11 07:38:44;;;;;;;33.22;26.58;;;;;;;-145.63;47.91;38971.44;5025039;28;20034;-65
2023/09/11 07:41:13;;;;;;;33.65;26.15;;;;;;;-145.63;48.05;38983.19;5025209;28;20045;-63
2023/09/11 07:43:38;;;;;;;32.13;27.05;;;;;;;-145.63;47.31;38953.84;5026983;28;20029;-64
2023/09/11 07:46:04;;;;;;;35.55;27.30;;;;;;;-145.63;47.98;38936.25;5025768;28;20038;-64
2023/09/11 07:48:29;;;;;;;34.30;27.63;;;;;;;-145.63;47.19;38949.94;5023869;28;20049;-64
2023/09/11 07:50:56;;;;;;;35.85;28.35;;;;;;;-145.63;47.59;38906.91;5013510;28;20030;-63
2023/09/11 07:53:22;;;;;;;40.47;28.88;;;;;;;-145.63;47.51;38965.56;5024893;28;20029;-63
2023/09/11 07:55:48;;;;;;;37.67;28.80;;;;;;;-145.63;46.91;38944.06;5024733;28;20022;-64
2023/09/11 07:58:16;;;;;;;40.75;30.27;;;;;;;-145.63;46.81;38942.13;5030816;28;20186;-64
2023/09/11 08:00:41;;;;;;;38.22;28.50;;;;;;;-145.63;46.42;38920.59;5023820;28;20025;-64
2023/09/11 08:03:07;;;;;;;34.45;28.35;;;;;;;-145.63;46.91;38891.28;5024422;28;20044;-65
2023/09/11 08:05:33;;;;;;;39.38;31.58;;;;;;;-145.63;46.69;38910.81;5024820;28;20028;-65
2023/09/11 08:08:01;;;;;;;38.78;30.30;;;;;;;-145.63;46.07;38924.50;5024573;28;20101;-65
2023/09/11 08:10:27;;;;;;;40.22;31.65;;;;;;;-145.63;46.74;38924.50;5024544;28;20030;-65
2023/09/11 08:12:53;;;;;;;40.70;30.10;;;;;;;-145.63;46.39;38934.28;5023441;28;20030;-64
2023/09/11 08:15:19;;;;;;;40.85;32.65;;;;;;;-145.63;46.42;38926.47;5024262;28;20322;-65
2023/09/11 08:17:44;;;;;;;37.10;30.65;;;;;;;-145.63;46.18;38924.50;5024409;28;20429;-65
2023/09/11 08:20:10;;;;;;;37.95;30.10;;;;;;;-145.63;46.58;38934.28;5024628;28;20380;-66
2023/09/11 08:22:37;;;;;;;35.75;29.98;;;;;;;-145.63;46.39;38899.09;5024348;28;20044;-64
2023/09/11 08:25:03;;;;;;;35.30;28.95;;;;;;;-145.63;46.23;38901.03;5024026;28;20053;-65
2023/09/11 08:27:29;;;;;;;40.67;31.95;;;;;;;-145.63;46.56;38910.81;5024146;28;20029;-64
2023/09/11 08:29:55;;;;;;;37.03;28.60;;;;;;;-145.63;45.70;38906.91;5029826;28;20041;-65
2023/09/11 08:32:21;;;;;;;41.42;30.67;;;;;;;-145.63;45.41;38848.25;5024799;28;20222;-66
2023/09/11 08:34:47;;;;;;;39.55;29.73;;;;;;;-145.63;45.68;38887.34;5023933;28;20044;-65
2023/09/11 08:37:12;;;;;;;35.85;28.23;;;;;;;-145.63;45.55;38877.56;5023679;28;20218;-66
2023/09/11 08:39:38;;;;;;;38.13;28.85;;;;;;;-145.63;44.96;38822.81;5019799;28;20029;-66
2023/09/11 08:42:04;;;;;;;35.78;27.83;;;;;;;-145.63;44.78;38815.00;5021075;28;20218;-67
2023/09/11 08:44:30;;;;;;;34.72;28.15;;;;;;;-145.63;44.21;38811.09;5023696;28;20377;-67
2023/09/11 08:46:59;;;;;;;38.08;27.50;;;;;;;-145.63;43.42;38844.34;5023691;28;20030;-67
2023/09/11 08:49:28;;;;;;;30.55;26.02;;;;;;;-145.63;43.72;38721.13;5023171;28;20080;-66
2023/09/11 08:51:54;;;;;;;40.85;29.38;;;;;;;-145.63;42.41;38695.72;5023393;28;20029;-67
2023/09/11 08:54:27;;;;;;;33.15;25.83;;;;;;;-145.63;42.18;38676.16;5023931;28;20021;-66
2023/09/11 08:56:54;;;;;;;38.08;26.95;;;;;;;-145.63;41.39;38723.09;5021465;28;20093;-68
2023/09/11 08:59:21;;;;;;;34.80;26.38;;;;;;;-145.63;42.42;38748.50;5021348;28;20499;-67
2023/09/11 09:01:48;;;;;;;79.45;67.03;;;;;;;-145.63;41.69;38652.69;5023694;28;20046;-66
2023/09/11 09:04:16;;;;;;;43.75;28.67;;;;;;;-145.63;40.89;38674.22;5022627;28;20034;-66
2023/09/11 09:06:45;;;;;;;32.55;26.17;;;;;;;-145.63;41.88;38625.31;5023430;28;20360;-65
2023/09/11 09:09:11;;;;;;;38.10;27.00;;;;;;;-145.63;40.29;38603.81;5017963;28;20322;-67
2023/09/11 09:11:38;;;;;;;31.70;25.55;;;;;;;-145.63;40.68;38637.06;5016898;28;20033;-66
2023/09/11 09:14:07;;;;;;;34.10;25.25;;;;;;;-145.63;40.97;38627.28;5023330;28;20221;-65
2023/09/11 09:16:33;;;;;;;34.67;26.13;;;;;;;-145.63;40.44;38580.34;5022256;28;20049;-67
2023/09/11 09:18:58;;;;;;;31.15;25.63;;;;;;;-145.63;40.03;38617.50;5023014;28;20030;-66
2023/09/11 09:21:25;;;;;;;31.52;25.00;;;;;;;-145.63;40.29;38582.31;5023216;28;20033;-67
2023/09/11 09:23:54;;;;;;;28.83;23.95;;;;;;;-145.63;39.77;38605.78;5022956;28;20182;-68
2023/09/11 09:26:22;;;;;;;32.00;24.58;;;;;;;-145.63;39.83;38582.31;5023371;28;20030;-66
2023/09/11 09:28:48;;;;;;;27.83;22.38;;;;;;;-145.63;39.92;38619.47;5023259;28;20040;-68
2023/09/11 09:31:26;;;;;;;34.80;23.65;;;;;;;-145.63;40.04;38637.06;5022811;28;20053;-67
2023/09/11 09:33:55;;;;;;;28.17;22.58;;;;;;;-145.63;39.56;38640.97;5016761;28;20022;-68
2023/09/11 09:36:22;;;;;;;29.00;22.50;;;;;;;-145.63;39.67;38664.44;5012399;28;20046;-69
2023/09/11 09:38:49;;;;;;;30.65;23.35;;;;;;;-145.63;39.73;38684.00;5006943;28;20353;-67
2023/09/11 09:41:20;;;;;;;32.45;22.08;;;;;;;-145.63;40.66;38672.25;5010231;28;20207;-68
2023/09/11 09:43:53;;;;;;;27.37;20.70;;;;;;;-145.63;40.32;38685.94;5022961;28;20026;-67
2023/09/11 09:46:21;;;;;;;25.35;20.20;;;;;;;-145.63;40.72;38682.03;5022506;28;20123;-68
2023/09/11 09:48:47;;;;;;;27.92;22.40;;;;;;;-145.63;40.30;38756.34;5022210;28;20026;-66
2023/09/11 09:51:13;;;;;;;25.05;21.30;;;;;;;-145.63;40.40;38742.66;5022390;28;20075;-67
2023/09/11 09:53:45;;;;;;;26.08;22.38;;;;;;;-145.63;40.72;38787.63;5022588;28;20038;-69
2023/09/11 09:56:11;;;;;;;29.80;21.70;;;;;;;-145.63;40.82;38789.59;5022297;28;20026;-67
2023/09/11 09:58:40;;;;;;;25.05;22.35;;;;;;;-145.63;40.83;38789.59;5021591;28;20021;-67
2023/09/11 10:01:10;;;;;;;26.45;21.20;;;;;;;-145.63;40.98;38799.34;5022469;28;20025;-67
2023/09/11 10:03:40;;;;;;;28.52;22.20;;;;;;;-145.63;41.23;38836.50;5022704;28;20026;-66
2023/09/11 10:06:08;;;;;;;27.55;21.85;;;;;;;-145.63;41.51;38816.97;5022694;28;20030;-65
2023/09/11 10:08:34;;;;;;;29.20;21.08;;;;;;;-145.63;41.21;38832.59;5022521;28;20097;-66
2023/09/11 10:10:59;;;;;;;23.70;20.35;;;;;;;-145.63;41.05;38824.78;5002873;28;20026;-65
2023/09/11 10:13:27;;;;;;;31.05;21.48;;;;;;;-145.63;41.53;38836.50;5021182;28;20026;-66
2023/09/11 10:15:56;;;;;;;31.15;22.50;;;;;;;-145.63;41.42;38848.25;5022406;28;20029;-66
2023/09/11 10:18:23;;;;;;;23.85;20.20;;;;;;;-145.63;41.67;38811.09;5022544;28;20050;-66
2023/09/11 10:20:49;;;;;;;25.33;21.08;;;;;;;-145.63;41.40;38785.66;5022305;28;20093;-67
2023/09/11 10:23:15;;;;;;;28.42;20.67;;;;;;;-145.63;41.02;38807.19;5022318;28;20490;-67
2023/09/11 10:25:52;;;;;;;27.55;19.40;;;;;;;-145.63;40.86;38813.03;5022731;28;20053;-66
2023/09/11 10:28:35;;;;;;;24.75;17.88;;;;;;;-145.63;40.90;38711.38;5022581;28;20029;-66
2023/09/11 10:31:16;;;;;;;23.75;19.50;;;;;;;-145.63;40.24;38797.41;5022157;28;20048;-66
2023/09/11 10:33:45;;;;;;;26.70;20.20;;;;;;;-145.63;40.38;38728.97;5022261;28;20022;-67
2023/09/11 10:36:13;;;;;;;23.13;18.83;;;;;;;-145.63;40.78;38709.41;5020556;28;20026;-66
2023/09/11 10:38:41;;;;;;;29.77;21.55;;;;;;;-145.63;40.17;38771.97;5022087;28;20164;-67
2023/09/11 10:41:08;;;;;;;23.58;19.63;;;;;;;-145.63;40.28;38777.84;5021556;28;20021;-67
2023/09/11 10:43:34;;;;;;;26.10;19.58;;;;;;;-145.63;40.72;38777.84;5022717;28;20210;-67
2023/09/11 10:46:41;;;;;;;23.95;19.33;;;;;;;-145.63;40.34;38793.50;5022115;28;20057;-66
2023/09/11 10:49:18;;;;;;;19.92;16.52;;;;;;;-145.63;40.51;38770.03;4942588;29;20208;-67
2023/09/11 10:51:47;;;;;;;24.15;17.30;;;;;;;-145.63;41.23;38742.66;5015424;28;20044;-66
2023/09/11 10:54:23;;;;;;;19.02;16.95;;;;;;;-145.63;39.71;38652.69;5022020;28;20085;-67
2023/09/11 10:56:50;;;;;;;20.77;17.88;;;;;;;-145.63;40.90;38750.47;5020621;28;20029;-66
2023/09/11 10:59:16;;;;;;;25.15;18.45;;;;;;;-145.63;39.51;38732.88;5023896;28;20072;-67
2023/09/11 11:01:46;;;;;;;22.50;18.33;;;;;;;-145.63;39.33;38742.66;5025755;28;20072;-66